Time;durP1;ratioP1;P1;durP2;ratioP2;P2;SDS_P1;SDS_P2;PMS_P1;PMS_P2;Temp;Humidity;BMP_temperature;BMP_pressure;BME280_temperature;BME280_humidity;BME280_pressure;Samples;Min_cycle;Max_cycle;Signal;HPM_P1;HPM_P2
2023/12/06 00:00:19;;;;;;;;;;;2.30;99.90;;;;;;5029402;28;19913;-76
2023/12/06 00:02:45;;;;;;;;;;;2.30;99.90;;;;;;5014623;28;19905;-76
2023/12/06 00:05:10;;;;;;;;;;;2.30;99.90;;;;;;5014615;28;19932;-76
2023/12/06 00:07:37;;;;;;;;;;;2.40;99.90;;;;;;5016689;28;19917;-76
2023/12/06 00:10:02;;;;;;;;;;;2.30;99.90;;;;;;5031821;28;19910;-77
2023/12/06 00:12:28;;;;;;;;;;;2.30;99.90;;;;;;5017505;28;20390;-77
2023/12/06 00:14:53;;;;;;;;;;;2.30;99.90;;;;;;5017323;28;19909;-76
2023/12/06 00:17:19;;;;;;;;;;;2.30;99.90;;;;;;5017555;28;19964;-76
2023/12/06 00:19:44;;;;;;;;;;;2.30;99.90;;;;;;5017202;28;20701;-76
2023/12/06 00:22:10;;;;;;;;;;;2.40;99.90;;;;;;5030744;28;20658;-76
2023/12/06 00:24:35;;;;;;;;;;;2.40;99.90;;;;;;5016365;28;20425;-77
2023/12/06 00:27:01;;;;;;;;;;;2.40;99.90;;;;;;5016219;28;19981;-76
2023/12/06 00:29:27;;;;;;;;;;;2.40;99.90;;;;;;5016693;28;19955;-77
2023/12/06 00:31:52;;;;;;;;;;;2.40;99.90;;;;;;5017045;28;20317;-77
2023/12/06 00:34:17;;;;;;;;;;;2.30;99.90;;;;;;5017976;28;19924;-78
2023/12/06 00:36:43;;;;;;;;;;;2.20;99.90;;;;;;5017061;28;19944;-76
2023/12/06 00:39:08;;;;;;;;;;;2.20;99.90;;;;;;5016410;28;19910;-77
2023/12/06 00:41:34;;;;;;;;;;;2.20;99.90;;;;;;5017932;28;19932;-76
2023/12/06 00:44:03;;;;;;;;;;;2.10;99.90;;;;;;5016962;28;19910;-75
2023/12/06 00:46:29;;;;;;;;;;;2.10;99.90;;;;;;5014854;28;19963;-77
2023/12/06 00:48:55;;;;;;;;;;;2.20;99.90;;;;;;5014643;28;20068;-77
2023/12/06 00:51:20;;;;;;;;;;;2.10;99.90;;;;;;5014750;28;20401;-77
2023/12/06 00:53:46;;;;;;;;;;;2.00;99.90;;;;;;5014916;28;20397;-77
2023/12/06 00:56:13;;;;;;;;;;;2.00;99.90;;;;;;5013675;28;19940;-76
2023/12/06 00:58:39;;;;;;;;;;;2.30;99.90;;;;;;5014295;28;19905;-76
2023/12/06 01:01:05;;;;;;;;;;;2.20;99.90;;;;;;5029661;28;20397;-76
2023/12/06 01:03:30;;;;;;;;;;;2.20;99.90;;;;;;5014140;28;19937;-76
2023/12/06 01:05:56;;;;;;;;;;;2.20;99.90;;;;;;5031700;28;20013;-77
2023/12/06 01:08:21;;;;;;;;;;;2.20;99.90;;;;;;5033872;28;19909;-76
2023/12/06 01:10:47;;;;;;;;;;;2.20;99.90;;;;;;5030621;28;19967;-76
2023/12/06 01:13:12;;;;;;;;;;;2.10;99.90;;;;;;5015178;28;19906;-76
2023/12/06 01:15:39;;;;;;;;;;;2.20;99.90;;;;;;5014640;28;20302;-76
2023/12/06 01:18:05;;;;;;;;;;;2.20;99.90;;;;;;5029907;28;20016;-76
2023/12/06 01:20:30;;;;;;;;;;;2.20;99.90;;;;;;5015040;28;19948;-77
2023/12/06 01:22:56;;;;;;;;;;;2.20;99.90;;;;;;5029485;28;20282;-77
2023/12/06 01:25:21;;;;;;;;;;;2.20;99.90;;;;;;5031382;28;19959;-76
2023/12/06 01:27:47;;;;;;;;;;;2.10;99.90;;;;;;5016658;28;19916;-76
2023/12/06 01:30:13;;;;;;;;;;;2.00;99.90;;;;;;5027882;28;19957;-76
2023/12/06 01:32:39;;;;;;;;;;;2.00;99.90;;;;;;5027489;28;19960;-76
2023/12/06 01:35:05;;;;;;;;;;;2.00;99.90;;;;;;5013173;28;19920;-77
2023/12/06 01:37:30;;;;;;;;;;;2.00;99.90;;;;;;5027643;28;19917;-76
2023/12/06 01:39:56;;;;;;;;;;;2.00;99.90;;;;;;5012795;28;19948;-76
2023/12/06 01:42:21;;;;;;;;;;;2.00;99.90;;;;;;5012486;28;19920;-76
2023/12/06 01:44:47;;;;;;;;;;;2.00;99.90;;;;;;5027470;28;19996;-77
2023/12/06 01:47:13;;;;;;;;;;;2.00;99.90;;;;;;5027466;28;19909;-76
2023/12/06 01:49:39;;;;;;;;;;;2.00;99.90;;;;;;5027626;28;19924;-76
2023/12/06 01:52:06;;;;;;;;;;;2.00;99.90;;;;;;5011933;28;19916;-76
2023/12/06 01:54:31;;;;;;;;;;;1.80;99.90;;;;;;5027890;28;19932;-76
2023/12/06 01:56:57;;;;;;;;;;;1.80;99.90;;;;;;5027865;28;19913;-76
2023/12/06 01:59:23;;;;;;;;;;;1.80;99.90;;;;;;5028001;28;20392;-76
2023/12/06 02:01:49;;;;;;;;;;;1.80;99.90;;;;;;5027945;28;20350;-76
2023/12/06 02:04:14;;;;;;;;;;;1.80;99.90;;;;;;5012728;28;20393;-76
2023/12/06 02:06:40;;;;;;;;;;;1.70;99.90;;;;;;5026353;28;20384;-76
2023/12/06 02:09:06;;;;;;;;;;;1.70;99.90;;;;;;5011864;28;19952;-76
2023/12/06 02:11:31;;;;;;;;;;;1.80;99.90;;;;;;5011625;28;19992;-76
2023/12/06 02:13:57;;;;;;;;;;;1.80;99.90;;;;;;5011778;28;19952;-75
2023/12/06 02:16:22;;;;;;;;;;;1.80;99.90;;;;;;5026738;28;19913;-76
2023/12/06 02:18:48;;;;;;;;;;;1.80;99.90;;;;;;5026798;28;20408;-76
2023/12/06 02:21:14;;;;;;;;;;;1.80;99.90;;;;;;5012429;28;19905;-76
2023/12/06 02:23:41;;;;;;;;;;;1.80;99.90;;;;;;5012389;28;20303;-76
2023/12/06 02:26:07;;;;;;;;;;;2.00;99.90;;;;;;5028052;28;19910;-76
2023/12/06 02:28:32;;;;;;;;;;;1.80;99.90;;;;;;5028318;28;19916;-75
2023/12/06 02:30:58;;;;;;;;;;;1.80;99.90;;;;;;5028116;28;19909;-76
2023/12/06 02:33:24;;;;;;;;;;;1.90;99.90;;;;;;5027085;28;19921;-76
2023/12/06 02:35:56;;;;;;;;;;;1.90;99.90;;;;;;5012963;28;20290;-76
2023/12/06 02:38:22;;;;;;;;;;;2.00;99.90;;;;;;5012329;28;19917;-76
2023/12/06 02:40:48;;;;;;;;;;;2.00;99.90;;;;;;5028538;28;20524;-76
2023/12/06 02:43:15;;;;;;;;;;;2.00;99.90;;;;;;5013709;28;19924;-77
2023/12/06 02:45:40;;;;;;;;;;;2.00;99.90;;;;;;5028271;28;19928;-76
2023/12/06 02:48:07;;;;;;;;;;;2.00;99.90;;;;;;5028883;28;20366;-76
2023/12/06 02:50:32;;;;;;;;;;;2.00;99.90;;;;;;5028916;28;20358;-77
2023/12/06 02:52:58;;;;;;;;;;;1.80;99.90;;;;;;5014388;28;19912;-76
2023/12/06 02:55:23;;;;;;;;;;;1.90;99.90;;;;;;5013788;28;19905;-76
2023/12/06 02:57:49;;;;;;;;;;;2.00;99.90;;;;;;5014260;28;20512;-76
2023/12/06 03:00:14;;;;;;;;;;;2.00;99.90;;;;;;5029038;28;20263;-77
2023/12/06 03:02:40;;;;;;;;;;;2.10;99.90;;;;;;5012025;28;19916;-77
2023/12/06 03:05:06;;;;;;;;;;;2.30;99.90;;;;;;5028728;28;19913;-77
2023/12/06 03:07:31;;;;;;;;;;;2.40;99.90;;;;;;5012944;28;19983;-77
2023/12/06 03:09:57;;;;;;;;;;;2.50;99.90;;;;;;5013314;28;20396;-78
2023/12/06 03:12:22;;;;;;;;;;;2.40;99.90;;;;;;5028319;28;19909;-77
2023/12/06 03:14:48;;;;;;;;;;;2.40;99.90;;;;;;5025997;28;19996;-77
2023/12/06 03:17:14;;;;;;;;;;;2.40;99.90;;;;;;5010816;28;20008;-77
2023/12/06 03:19:39;;;;;;;;;;;2.70;99.90;;;;;;5013830;28;19913;-76
2023/12/06 03:22:05;;;;;;;;;;;2.80;99.90;;;;;;5015337;28;19992;-77
2023/12/06 03:24:30;;;;;;;;;;;2.70;99.90;;;;;;5031481;28;19929;-77
2023/12/06 03:26:56;;;;;;;;;;;2.70;99.90;;;;;;5016623;28;19913;-77
2023/12/06 03:29:22;;;;;;;;;;;2.70;99.90;;;;;;5016925;28;19925;-76
2023/12/06 03:31:47;;;;;;;;;;;2.60;99.90;;;;;;5032405;28;20723;-77
2023/12/06 03:34:13;;;;;;;;;;;2.60;99.90;;;;;;5017489;28;20418;-77
2023/12/06 03:36:38;;;;;;;;;;;2.50;99.90;;;;;;5016963;28;20275;-77
2023/12/06 03:39:04;;;;;;;;;;;2.50;99.90;;;;;;5015114;28;20404;-77
2023/12/06 03:41:29;;;;;;;;;;;2.50;99.90;;;;;;5031256;28;19905;-77
2023/12/06 03:43:55;;;;;;;;;;;2.50;99.90;;;;;;5014561;28;19917;-77
2023/12/06 03:46:20;;;;;;;;;;;2.30;99.90;;;;;;5014574;28;19909;-77
2023/12/06 03:48:46;;;;;;;;;;;2.30;99.90;;;;;;5014495;28;19920;-77
2023/12/06 03:51:12;;;;;;;;;;;2.40;99.90;;;;;;5029826;28;20385;-77
2023/12/06 03:53:38;;;;;;;;;;;2.40;99.90;;;;;;5015225;28;19909;-78
2023/12/06 03:56:03;;;;;;;;;;;2.40;99.90;;;;;;5029715;28;19906;-77
2023/12/06 03:58:29;;;;;;;;;;;2.30;99.90;;;;;;5014963;28;19953;-77
2023/12/06 04:00:55;;;;;;;;;;;2.30;99.90;;;;;;5013590;28;19905;-77
2023/12/06 04:03:21;;;;;;;;;;;2.30;99.90;;;;;;5014780;28;19906;-77
2023/12/06 04:05:47;;;;;;;;;;;2.30;99.90;;;;;;5015048;28;19932;-78
2023/12/06 04:08:13;;;;;;;;;;;2.30;99.90;;;;;;5015191;28;20285;-77
2023/12/06 04:10:39;;;;;;;;;;;2.30;99.90;;;;;;5015274;28;19909;-77
2023/12/06 04:13:04;;;;;;;;;;;2.30;99.90;;;;;;5014571;28;19909;-77
2023/12/06 04:15:30;;;;;;;;;;;2.30;99.90;;;;;;5014926;28;19912;-77
2023/12/06 04:17:56;;;;;;;;;;;2.30;99.90;;;;;;5029763;28;20011;-77
2023/12/06 04:20:22;;;;;;;;;;;2.40;99.90;;;;;;5014585;28;19909;-78
2023/12/06 04:22:47;;;;;;;;;;;2.30;99.90;;;;;;5032968;28;19910;-78
2023/12/06 04:25:15;;;;;;;;;;;2.40;99.90;;;;;;5036584;28;19905;-77
2023/12/06 04:27:41;;;;;;;;;;;2.50;99.90;;;;;;5018973;28;19905;-77
2023/12/06 04:30:07;;;;;;;;;;;2.40;99.90;;;;;;5014238;28;19916;-77
2023/12/06 04:32:33;;;;;;;;;;;2.40;99.90;;;;;;5013663;28;19909;-77
2023/12/06 04:34:58;;;;;;;;;;;2.40;99.90;;;;;;5030320;28;19956;-78
2023/12/06 04:37:24;;;;;;;;;;;2.40;99.90;;;;;;5014394;28;19917;-77
2023/12/06 04:39:49;;;;;;;;;;;2.40;99.90;;;;;;5015220;28;20416;-77
2023/12/06 04:42:15;;;;;;;;;;;2.50;99.90;;;;;;5015370;28;20429;-77
2023/12/06 04:44:41;;;;;;;;;;;2.40;99.90;;;;;;5014921;28;20294;-77
2023/12/06 04:47:07;;;;;;;;;;;2.40;99.90;;;;;;5030214;28;19916;-77
2023/12/06 04:49:32;;;;;;;;;;;2.40;99.90;;;;;;5030477;28;19906;-77
2023/12/06 04:51:59;;;;;;;;;;;2.30;99.90;;;;;;5029319;28;19910;-77
2023/12/06 04:54:25;;;;;;;;;;;2.30;99.90;;;;;;5029708;28;19963;-77
2023/12/06 04:56:51;;;;;;;;;;;2.30;99.90;;;;;;5028922;28;19921;-77
2023/12/06 04:59:16;;;;;;;;;;;2.30;99.90;;;;;;5014002;28;19916;-77
2023/12/06 05:01:43;;;;;;;;;;;2.30;99.90;;;;;;5013806;28;19913;-77
2023/12/06 05:04:09;;;;;;;;;;;2.30;99.90;;;;;;5014714;28;19912;-77
2023/12/06 05:06:34;;;;;;;;;;;2.40;99.90;;;;;;5014664;28;19905;-77
2023/12/06 05:09:00;;;;;;;;;;;2.30;99.90;;;;;;5015374;28;19987;-77
2023/12/06 05:11:25;;;;;;;;;;;2.20;99.90;;;;;;5031871;28;19963;-77
2023/12/06 05:13:51;;;;;;;;;;;2.20;99.90;;;;;;5017157;28;19905;-78
2023/12/06 05:16:16;;;;;;;;;;;2.10;99.90;;;;;;5019817;28;19964;-77
2023/12/06 05:18:42;;;;;;;;;;;2.10;99.90;;;;;;5017166;28;20363;-77
2023/12/06 05:21:07;;;;;;;;;;;2.10;99.90;;;;;;5014543;28;19906;-77
2023/12/06 05:23:33;;;;;;;;;;;2.10;99.90;;;;;;5015114;28;19912;-77
2023/12/06 05:25:58;;;;;;;;;;;2.10;99.90;;;;;;5029728;28;19913;-77
2023/12/06 05:28:24;;;;;;;;;;;2.20;99.90;;;;;;5015021;28;20629;-78
2023/12/06 05:30:50;;;;;;;;;;;2.30;99.90;;;;;;5014062;28;19910;-77
2023/12/06 05:33:15;;;;;;;;;;;2.30;99.90;;;;;;5014208;28;19943;-77
2023/12/06 05:35:40;;;;;;;;;;;2.40;99.90;;;;;;5029559;28;19960;-77
2023/12/06 05:38:06;;;;;;;;;;;2.20;99.90;;;;;;5029623;28;20283;-77
2023/12/06 05:40:32;;;;;;;;;;;2.20;99.90;;;;;;5014389;28;19912;-77
2023/12/06 05:42:58;;;;;;;;;;;2.30;99.90;;;;;;5030354;28;19955;-76
2023/12/06 05:45:23;;;;;;;;;;;2.40;99.90;;;;;;5014316;28;20435;-77
2023/12/06 05:47:49;;;;;;;;;;;2.40;99.90;;;;;;5014766;28;19932;-77
2023/12/06 05:50:14;;;;;;;;;;;2.50;99.90;;;;;;5013943;28;19906;-77
2023/12/06 05:52:40;;;;;;;;;;;2.50;99.90;;;;;;5014721;28;19962;-77
2023/12/06 05:55:05;;;;;;;;;;;2.40;99.90;;;;;;5013879;28;19905;-77
2023/12/06 05:57:32;;;;;;;;;;;2.30;99.90;;;;;;5014906;28;19914;-77
2023/12/06 06:00:01;;;;;;;;;;;2.30;99.90;;;;;;5029564;28;19909;-77
2023/12/06 06:02:27;;;;;;;;;;;2.30;99.90;;;;;;5029220;28;20301;-77
2023/12/06 06:04:52;;;;;;;;;;;2.30;99.90;;;;;;5016103;28;19951;-77
2023/12/06 06:07:18;;;;;;;;;;;2.40;99.90;;;;;;5028264;28;19924;-77
2023/12/06 06:09:44;;;;;;;;;;;2.40;99.90;;;;;;5026069;28;20000;-78
2023/12/06 06:12:09;;;;;;;;;;;2.50;99.90;;;;;;5014155;28;19905;-77
2023/12/06 06:14:35;;;;;;;;;;;2.50;99.90;;;;;;5014146;28;19917;-77
2023/12/06 06:17:00;;;;;;;;;;;2.40;99.90;;;;;;5013510;28;19921;-77
2023/12/06 06:19:26;;;;;;;;;;;2.30;99.90;;;;;;5027830;28;19953;-76
2023/12/06 06:21:51;;;;;;;;;;;2.30;99.90;;;;;;5013171;28;20012;-77
2023/12/06 06:24:17;;;;;;;;;;;2.40;99.90;;;;;;5030017;28;19913;-76
2023/12/06 06:26:42;;;;;;;;;;;2.40;99.90;;;;;;5014517;28;19971;-77
2023/12/06 06:29:08;;;;;;;;;;;2.30;99.90;;;;;;5012681;28;19909;-77
2023/12/06 06:31:34;;;;;;;;;;;2.20;99.90;;;;;;5030145;28;19905;-77
2023/12/06 06:34:02;;;;;;;;;;;2.30;99.90;;;;;;5030870;28;19929;-76
2023/12/06 06:36:28;;;;;;;;;;;2.20;99.90;;;;;;5013425;28;19913;-76
2023/12/06 06:38:55;;;;;;;;;;;2.30;99.90;;;;;;5028687;28;20247;-77
2023/12/06 06:41:21;;;;;;;;;;;2.30;99.90;;;;;;5013833;28;19909;-76
2023/12/06 06:43:46;;;;;;;;;;;2.40;99.90;;;;;;5013552;28;19985;-77
2023/12/06 06:46:12;;;;;;;;;;;2.30;99.90;;;;;;5029146;28;19909;-77
2023/12/06 06:48:38;;;;;;;;;;;2.30;99.90;;;;;;5027758;28;19906;-77
2023/12/06 06:51:03;;;;;;;;;;;2.30;99.90;;;;;;5012518;28;19906;-76
2023/12/06 06:53:29;;;;;;;;;;;2.30;99.90;;;;;;5015115;28;19947;-76
2023/12/06 06:55:55;;;;;;;;;;;2.50;99.90;;;;;;5031973;28;19905;-76
2023/12/06 06:58:20;;;;;;;;;;;2.40;99.90;;;;;;5033483;28;20381;-76
2023/12/06 07:00:46;;;;;;;;;;;2.40;99.90;;;;;;5034926;28;20285;-76
2023/12/06 07:03:11;;;;;;;;;;;2.40;99.90;;;;;;5034062;28;19910;-77
2023/12/06 07:05:37;;;;;;;;;;;2.50;99.90;;;;;;5034841;28;19905;-76
2023/12/06 07:08:03;;;;;;;;;;;2.60;99.90;;;;;;5034004;28;19916;-77
2023/12/06 07:10:28;;;;;;;;;;;2.50;99.90;;;;;;5029299;28;19909;-76
2023/12/06 07:12:54;;;;;;;;;;;2.60;99.90;;;;;;5016141;28;20362;-77
2023/12/06 07:15:19;;;;;;;;;;;2.70;99.90;;;;;;5032412;28;19909;-75
2023/12/06 07:17:45;;;;;;;;;;;2.70;99.90;;;;;;5032100;28;19964;-76
2023/12/06 07:20:12;;;;;;;;;;;2.70;99.90;;;;;;5033872;28;19916;-77
2023/12/06 07:22:37;;;;;;;;;;;2.60;99.90;;;;;;5033067;28;19960;-77
2023/12/06 07:25:04;;;;;;;;;;;2.70;99.90;;;;;;5015103;28;19956;-77
2023/12/06 07:27:29;;;;;;;;;;;2.70;99.90;;;;;;5014743;28;19905;-77
2023/12/06 07:29:55;;;;;;;;;;;2.70;99.90;;;;;;5013659;28;20465;-77
2023/12/06 07:32:21;;;;;;;;;;;2.80;99.90;;;;;;5013831;28;19909;-76
2023/12/06 07:34:47;;;;;;;;;;;2.90;99.90;;;;;;5015282;28;19944;-76
2023/12/06 07:37:12;;;;;;;;;;;3.00;99.90;;;;;;5014765;28;19968;-76
2023/12/06 07:39:38;;;;;;;;;;;3.00;99.90;;;;;;5015756;28;20000;-77
2023/12/06 07:42:03;;;;;;;;;;;3.00;99.90;;;;;;5031233;28;19913;-77
2023/12/06 07:44:29;;;;;;;;;;;3.10;99.90;;;;;;5032007;28;19905;-76
2023/12/06 07:46:54;;;;;;;;;;;3.10;99.90;;;;;;5032200;28;19917;-76
2023/12/06 07:49:20;;;;;;;;;;;3.20;99.90;;;;;;5015900;28;19906;-75
2023/12/06 07:51:45;;;;;;;;;;;3.30;99.90;;;;;;5015405;28;19920;-79
2023/12/06 07:54:11;;;;;;;;;;;3.40;99.90;;;;;;5015097;28;19912;-76
2023/12/06 07:56:37;;;;;;;;;;;3.40;99.90;;;;;;5015459;28;19964;-77
2023/12/06 07:59:02;;;;;;;;;;;3.40;99.90;;;;;;5014887;28;19985;-76
2023/12/06 08:01:31;;;;;;;;;;;3.50;99.90;;;;;;5015524;28;19913;-77
2023/12/06 08:04:00;;;;;;;;;;;3.40;99.90;;;;;;5030506;28;19921;-76
2023/12/06 08:06:26;;;;;;;;;;;3.50;99.90;;;;;;5030698;28;19945;-77
2023/12/06 08:08:53;;;;;;;;;;;3.60;99.90;;;;;;5031318;28;19906;-77
2023/12/06 08:11:19;;;;;;;;;;;3.50;99.90;;;;;;5031577;28;19948;-77
2023/12/06 08:13:46;;;;;;;;;;;3.60;99.90;;;;;;5016709;28;20374;-76
2023/12/06 08:16:11;;;;;;;;;;;3.60;99.90;;;;;;5015843;28;19905;-76
2023/12/06 08:18:36;;;;;;;;;;;3.70;99.90;;;;;;5031715;28;20008;-76
2023/12/06 08:21:04;;;;;;;;;;;3.70;99.90;;;;;;5017507;28;19906;-76
2023/12/06 08:23:29;;;;;;;;;;;3.80;99.90;;;;;;5032001;28;19909;-76
2023/12/06 08:25:55;;;;;;;;;;;3.80;99.90;;;;;;5032795;28;20495;-77
2023/12/06 08:28:20;;;;;;;;;;;3.70;99.90;;;;;;5032371;28;20366;-76
2023/12/06 08:30:46;;;;;;;;;;;3.80;99.90;;;;;;5033116;28;19913;-76
2023/12/06 08:33:13;;;;;;;;;;;3.80;99.90;;;;;;5017879;28;19944;-77
2023/12/06 08:35:39;;;;;;;;;;;3.90;99.90;;;;;;5032785;28;19905;-77
2023/12/06 08:38:05;;;;;;;;;;;4.00;99.90;;;;;;5032238;28;20013;-76
2023/12/06 08:40:31;;;;;;;;;;;4.10;99.90;;;;;;5015234;28;19905;-76
2023/12/06 08:42:57;;;;;;;;;;;4.20;99.90;;;;;;5014949;28;19913;-77
2023/12/06 08:45:22;;;;;;;;;;;4.20;99.90;;;;;;5014979;28;19963;-77
2023/12/06 08:47:48;;;;;;;;;;;4.20;99.90;;;;;;5015039;28;20008;-76
2023/12/06 08:50:14;;;;;;;;;;;4.30;99.90;;;;;;5030986;28;20392;-77
2023/12/06 08:52:41;;;;;;;;;;;4.30;99.90;;;;;;5015853;28;19909;-77
2023/12/06 08:55:06;;;;;;;;;;;4.40;99.90;;;;;;5016904;28;19921;-77
2023/12/06 08:57:32;;;;;;;;;;;4.40;99.90;;;;;;5032051;28;20055;-76
2023/12/06 08:59:57;;;;;;;;;;;4.40;99.90;;;;;;5032159;28;19976;-77
2023/12/06 09:02:23;;;;;;;;;;;4.50;99.90;;;;;;5017544;28;19964;-76
2023/12/06 09:04:50;;;;;;;;;;;4.50;99.90;;;;;;5033537;28;19906;-78
2023/12/06 09:07:15;;;;;;;;;;;4.50;99.90;;;;;;5017197;28;20003;-76
2023/12/06 09:09:44;;;;;;;;;;;4.60;99.90;;;;;;5033618;28;19949;-76
2023/12/06 09:12:10;;;;;;;;;;;4.60;99.90;;;;;;5033874;28;20317;-78
2023/12/06 09:14:35;;;;;;;;;;;4.60;99.90;;;;;;5017997;28;19912;-77
2023/12/06 09:17:01;;;;;;;;;;;4.70;99.90;;;;;;5032885;28;19914;-77
2023/12/06 09:19:26;;;;;;;;;;;4.70;99.90;;;;;;5015194;28;19920;-75
2023/12/06 09:21:52;;;;;;;;;;;4.60;99.90;;;;;;5030705;28;20366;-76
2023/12/06 09:24:17;;;;;;;;;;;4.70;99.90;;;;;;5034052;28;19909;-77
2023/12/06 09:26:44;;;;;;;;;;;4.80;99.90;;;;;;5015176;28;19906;-77
2023/12/06 09:29:10;;;;;;;;;;;4.90;99.90;;;;;;5013603;28;19909;-77
2023/12/06 09:31:36;;;;;;;;;;;5.00;99.90;;;;;;5013541;28;19909;-76
2023/12/06 09:34:02;;;;;;;;;;;4.90;99.90;;;;;;5027549;28;20433;-76
2023/12/06 09:36:28;;;;;;;;;;;5.00;99.90;;;;;;5012451;28;19911;-76
2023/12/06 09:38:54;;;;;;;;;;;5.10;99.90;;;;;;5013190;28;19912;-76
2023/12/06 09:41:20;;;;;;;;;;;5.20;99.90;;;;;;5029536;28;19909;-77
2023/12/06 09:43:46;;;;;;;;;;;5.30;99.90;;;;;;5014424;28;19992;-76
2023/12/06 09:46:16;;;;;;;;;;;5.30;99.90;;;;;;5012555;28;19913;-76
2023/12/06 09:48:41;;;;;;;;;;;5.40;99.90;;;;;;5028595;28;19909;-77
2023/12/06 09:51:07;;;;;;;;;;;5.60;99.90;;;;;;5028256;28;19916;-77
2023/12/06 09:53:32;;;;;;;;;;;5.70;99.90;;;;;;5029552;28;19909;-77
2023/12/06 09:55:58;;;;;;;;;;;5.80;99.90;;;;;;5026935;28;19916;-77
2023/12/06 09:58:23;;;;;;;;;;;5.80;99.90;;;;;;5012060;28;19955;-76
2023/12/06 10:00:49;;;;;;;;;;;5.90;99.90;;;;;;5011665;28;19910;-76
2023/12/06 10:03:15;;;;;;;;;;;5.90;99.90;;;;;;5027108;28;19909;-77
2023/12/06 10:05:41;;;;;;;;;;;5.90;99.90;;;;;;5027468;28;19909;-76
2023/12/06 10:08:07;;;;;;;;;;;5.90;99.90;;;;;;5027976;28;19913;-77
2023/12/06 10:10:32;;;;;;;;;;;6.00;99.90;;;;;;5030653;28;20267;-76
2023/12/06 10:12:58;;;;;;;;;;;5.90;99.90;;;;;;5013949;28;19917;-77
2023/12/06 10:15:24;;;;;;;;;;;6.10;99.90;;;;;;5015717;28;19910;-77
2023/12/06 10:17:49;;;;;;;;;;;6.10;99.90;;;;;;5015561;28;19917;-77
2023/12/06 10:20:16;;;;;;;;;;;6.20;99.90;;;;;;5015713;28;19909;-77
2023/12/06 10:22:41;;;;;;;;;;;6.20;99.90;;;;;;5015973;28;20366;-77
2023/12/06 10:25:10;;;;;;;;;;;6.20;99.90;;;;;;5016011;28;19909;-77
2023/12/06 10:27:36;;;;;;;;;;;6.30;99.90;;;;;;5030167;28;19906;-77
2023/12/06 10:30:05;;;;;;;;;;;6.20;99.90;;;;;;5035101;28;19913;-77
2023/12/06 10:32:32;;;;;;;;;;;6.30;99.90;;;;;;5033479;28;19912;-77
2023/12/06 10:35:01;;;;;;;;;;;6.20;99.90;;;;;;5036124;28;19963;-76
2023/12/06 10:37:27;;;;;;;;;;;6.10;99.90;;;;;;5021341;28;20079;-76
2023/12/06 10:40:12;;;;;;;;;;;6.20;99.90;;;;;;5034842;28;19959;-76
2023/12/06 10:42:38;;;;;;;;;;;6.00;99.90;;;;;;5032701;28;19909;-77
2023/12/06 10:45:04;;;;;;;;;;;6.00;99.90;;;;;;5017631;28;19909;-77
2023/12/06 10:47:33;;;;;;;;;;;5.90;99.90;;;;;;5017326;28;19905;-76
2023/12/06 10:49:59;;;;;;;;;;;5.90;99.90;;;;;;5017793;28;20429;-77
2023/12/06 10:52:25;;;;;;;;;;;5.80;99.90;;;;;;5033167;28;20381;-77
2023/12/06 10:54:53;;;;;;;;;;;5.80;99.90;;;;;;5033146;28;19913;-77
2023/12/06 10:57:18;;;;;;;;;;;5.80;99.90;;;;;;5018211;28;20012;-77
2023/12/06 10:59:45;;;;;;;;;;;5.70;99.90;;;;;;5034329;28;19967;-76
2023/12/06 11:02:11;;;;;;;;;;;5.70;99.90;;;;;;5019769;28;19910;-76
2023/12/06 11:04:41;;;;;;;;;;;5.70;99.90;;;;;;5034570;28;19960;-76
2023/12/06 11:07:13;;;;;;;;;;;5.60;99.90;;;;;;5018400;28;19914;-76
2023/12/06 11:09:58;;;;;;;;;;;5.60;99.90;;;;;;5033964;28;19909;-75
2023/12/06 11:12:43;;;;;;;;;;;5.60;99.90;;;;;;5019827;28;19945;-76
2023/12/06 11:15:09;;;;;;;;;;;5.60;99.90;;;;;;5011016;28;20382;-76
2023/12/06 11:17:48;;;;;;;;;;;5.60;99.90;;;;;;5016826;28;19928;-76
2023/12/06 11:20:14;;;;;;;;;;;5.60;99.90;;;;;;5032758;28;20007;-76
2023/12/06 11:22:40;;;;;;;;;;;5.60;99.90;;;;;;5020596;28;19909;-77
2023/12/06 11:25:07;;;;;;;;;;;5.50;99.90;;;;;;5020761;28;19912;-77
2023/12/06 11:27:32;;;;;;;;;;;5.40;99.90;;;;;;5021275;28;20467;-77
2023/12/06 11:29:58;;;;;;;;;;;5.40;99.90;;;;;;5037162;28;19995;-78
2023/12/06 11:32:24;;;;;;;;;;;5.40;99.90;;;;;;5017851;28;19952;-77
2023/12/06 11:34:55;;;;;;;;;;;5.40;99.90;;;;;;5017679;28;19914;-76
2023/12/06 11:37:22;;;;;;;;;;;5.30;99.90;;;;;;5032867;28;20425;-77
2023/12/06 11:39:48;;;;;;;;;;;5.30;99.90;;;;;;5017126;28;19988;-76
2023/12/06 11:42:20;;;;;;;;;;;5.30;99.90;;;;;;5033084;28;19906;-76
2023/12/06 11:44:52;;;;;;;;;;;5.20;99.90;;;;;;5018715;28;19915;-76
2023/12/06 11:47:22;;;;;;;;;;;5.20;99.90;;;;;;5017848;28;19963;-77
2023/12/06 11:49:53;;;;;;;;;;;5.20;99.90;;;;;;5033923;28;19945;-77
2023/12/06 11:52:20;;;;;;;;;;;5.10;99.90;;;;;;5033658;28;19981;-76
2023/12/06 11:54:45;;;;;;;;;;;5.10;99.90;;;;;;5017992;28;19916;-76
2023/12/06 11:57:11;;;;;;;;;;;5.10;99.90;;;;;;5032057;28;20004;-77
2023/12/06 11:59:39;;;;;;;;;;;5.10;99.90;;;;;;5032850;28;19957;-76
2023/12/06 12:02:06;;;;;;;;;;;5.10;99.90;;;;;;5016661;28;19905;-77
2023/12/06 12:04:32;;;;;;;;;;;5.00;99.90;;;;;;5017219;28;19905;-77
2023/12/06 12:07:01;;;;;;;;;;;5.00;99.90;;;;;;5032984;28;20394;-77
2023/12/06 12:09:26;;;;;;;;;;;5.00;99.90;;;;;;5017629;28;19965;-77
2023/12/06 12:11:52;;;;;;;;;;;5.00;99.90;;;;;;5032923;28;19976;-77
2023/12/06 12:14:18;;;;;;;;;;;5.00;99.90;;;;;;5032826;28;19916;-77
2023/12/06 12:16:44;;;;;;;;;;;5.00;99.90;;;;;;5032513;28;19913;-77
2023/12/06 12:19:11;;;;;;;;;;;5.00;99.90;;;;;;5015614;28;20285;-77
2023/12/06 12:21:36;;;;;;;;;;;5.00;99.90;;;;;;5017315;28;20155;-75
2023/12/06 12:24:02;;;;;;;;;;;5.00;99.90;;;;;;5017564;28;19987;-77
2023/12/06 12:26:28;;;;;;;;;;;5.00;99.90;;;;;;5032247;28;20000;-76
2023/12/06 12:28:54;;;;;;;;;;;5.00;99.90;;;;;;5019535;28;19905;-78
2023/12/06 12:31:22;;;;;;;;;;;5.00;99.90;;;;;;5019209;28;20012;-77
2023/12/06 12:33:48;;;;;;;;;;;4.90;99.90;;;;;;5034956;28;19924;-76
2023/12/06 12:36:16;;;;;;;;;;;4.90;99.90;;;;;;5021344;28;20007;-76
2023/12/06 12:38:42;;;;;;;;;;;5.00;99.90;;;;;;5021750;28;19956;-75
2023/12/06 12:41:12;;;;;;;;;;;4.90;99.90;;;;;;5017455;28;19917;-77
2023/12/06 12:43:38;;;;;;;;;;;4.80;99.90;;;;;;5033942;28;19932;-77
2023/12/06 12:46:03;;;;;;;;;;;4.80;99.90;;;;;;5031869;28;19905;-77
2023/12/06 12:48:29;;;;;;;;;;;4.80;99.90;;;;;;5030656;28;19948;-77
2023/12/06 12:51:14;;;;;;;;;;;4.80;99.90;;;;;;5029281;28;19916;-77
2023/12/06 12:53:43;;;;;;;;;;;4.80;99.90;;;;;;5014807;28;19910;-77
2023/12/06 12:56:09;;;;;;;;;;;4.80;99.90;;;;;;5029469;28;19948;-76
2023/12/06 12:58:36;;;;;;;;;;;4.80;99.90;;;;;;5023380;28;19967;-76
2023/12/06 13:01:03;;;;;;;;;;;4.90;99.90;;;;;;5013630;28;20013;-77
2023/12/06 13:03:31;;;;;;;;;;;4.90;99.90;;;;;;5029708;28;20297;-76
2023/12/06 13:05:58;;;;;;;;;;;4.90;99.90;;;;;;5014745;28;19909;-76
2023/12/06 13:08:23;;;;;;;;;;;4.80;99.90;;;;;;5016088;28;19909;-77
2023/12/06 13:10:51;;;;;;;;;;;4.80;99.90;;;;;;5030681;28;19955;-77
2023/12/06 13:13:17;;;;;;;;;;;4.70;99.90;;;;;;5031088;28;19960;-77
2023/12/06 13:15:42;;;;;;;;;;;4.60;99.90;;;;;;5015966;28;19909;-76
2023/12/06 13:18:09;;;;;;;;;;;4.60;99.90;;;;;;5016331;28;19948;-76
2023/12/06 13:20:35;;;;;;;;;;;4.60;99.90;;;;;;5031431;28;19909;-77
2023/12/06 13:23:00;;;;;;;;;;;4.60;99.90;;;;;;5031444;28;19905;-76
2023/12/06 13:25:26;;;;;;;;;;;4.60;99.90;;;;;;5031775;28;19919;-76
2023/12/06 13:27:51;;;;;;;;;;;4.70;99.90;;;;;;5032114;28;19963;-76
2023/12/06 13:30:17;;;;;;;;;;;4.70;99.90;;;;;;5031872;28;19915;-78
2023/12/06 13:32:43;;;;;;;;;;;4.70;99.90;;;;;;5033237;28;19918;-78
2023/12/06 13:35:10;;;;;;;;;;;4.70;99.90;;;;;;5029406;28;20007;-77
2023/12/06 13:37:36;;;;;;;;;;;4.70;99.90;;;;;;5013769;28;19921;-77
2023/12/06 13:40:03;;;;;;;;;;;4.70;99.90;;;;;;5029242;28;19963;-77
2023/12/06 13:42:28;;;;;;;;;;;4.60;99.90;;;;;;5016885;28;19913;-76
2023/12/06 13:44:54;;;;;;;;;;;4.60;99.90;;;;;;5017746;28;19905;-77
2023/12/06 13:47:20;;;;;;;;;;;4.60;99.90;;;;;;5017655;28;20743;-77
2023/12/06 13:49:45;;;;;;;;;;;4.60;99.90;;;;;;5032126;28;20271;-77
2023/12/06 13:52:12;;;;;;;;;;;4.60;99.90;;;;;;5018328;28;19963;-77
2023/12/06 13:54:38;;;;;;;;;;;4.50;99.90;;;;;;5017969;28;19956;-77
2023/12/06 13:57:04;;;;;;;;;;;4.50;99.90;;;;;;5027750;28;19921;-77
2023/12/06 13:59:31;;;;;;;;;;;4.40;99.90;;;;;;5028117;28;19917;-77
2023/12/06 14:01:56;;;;;;;;;;;4.40;99.90;;;;;;5014109;28;19956;-76
2023/12/06 14:04:22;;;;;;;;;;;4.40;99.90;;;;;;5027839;28;19960;-76
2023/12/06 14:06:48;;;;;;;;;;;4.50;99.90;;;;;;5012119;28;19932;-76
2023/12/06 14:09:14;;;;;;;;;;;4.50;99.90;;;;;;5028289;28;19913;-76
2023/12/06 14:11:39;;;;;;;;;;;4.50;99.90;;;;;;5012817;28;19909;-75
2023/12/06 14:14:05;;;;;;;;;;;4.50;99.90;;;;;;5028140;28;19910;-76
2023/12/06 14:16:30;;;;;;;;;;;4.40;99.90;;;;;;5028494;28;20009;-77
2023/12/06 14:18:56;;;;;;;;;;;4.40;99.90;;;;;;5014166;28;20000;-77
2023/12/06 14:21:21;;;;;;;;;;;4.30;99.90;;;;;;5029732;28;19933;-75
2023/12/06 14:23:47;;;;;;;;;;;4.20;99.90;;;;;;5012969;28;20007;-77